createdAt,value
2016-12-15T00:00:13.139Z,2.7
2016-12-15T00:00:33.671Z,2.7
2016-12-15T00:00:54.191Z,2.6
2016-12-15T00:01:14.734Z,2.8
2016-12-15T00:01:35.270Z,2.7
2016-12-15T00:01:55.806Z,2.7
2016-12-15T00:02:16.340Z,2.7
2016-12-15T00:02:36.872Z,2.6
2016-12-15T00:02:57.398Z,2.7
2016-12-15T00:03:17.929Z,2.7
2016-12-15T00:03:38.451Z,2.6
2016-12-15T00:03:58.979Z,2.7
2016-12-15T00:04:19.511Z,2.7
2016-12-15T00:04:40.070Z,2.8
2016-12-15T00:05:00.615Z,2.7
2016-12-15T00:05:21.137Z,2.7
2016-12-15T00:05:41.676Z,2.6
2016-12-15T00:06:02.205Z,2.7
2016-12-15T00:06:22.748Z,2.7
2016-12-15T00:06:43.285Z,2.7
2016-12-15T00:07:03.810Z,2.6
2016-12-15T00:07:24.324Z,2.7
2016-12-15T00:07:44.865Z,2.8
2016-12-15T00:08:05.386Z,2.7
2016-12-15T00:08:25.965Z,2.7
2016-12-15T00:08:46.489Z,2.7
2016-12-15T00:09:07.016Z,2.7
2016-12-15T00:09:27.541Z,2.7
2016-12-15T00:09:48.074Z,2.6
2016-12-15T00:10:08.610Z,2.7
2016-12-15T00:10:29.138Z,2.6
2016-12-15T00:10:49.667Z,2.6
2016-12-15T00:11:10.225Z,2.6
2016-12-15T00:11:30.759Z,2.6
2016-12-15T00:11:51.317Z,2.6
2016-12-15T00:12:11.861Z,2.6
2016-12-15T00:12:32.410Z,2.6
2016-12-15T00:12:52.934Z,2.6
2016-12-15T00:13:13.489Z,2.6
2016-12-15T00:13:34.007Z,2.6
2016-12-15T00:13:54.537Z,2.6
2016-12-15T00:14:15.101Z,2.5
2016-12-15T00:14:35.641Z,2.6
2016-12-15T00:14:56.165Z,2.6
2016-12-15T00:15:16.717Z,2.6
2016-12-15T00:15:37.241Z,2.6
2016-12-15T00:15:57.767Z,2.5
2016-12-15T00:16:18.309Z,2.5
2016-12-15T00:16:38.851Z,2.5
2016-12-15T00:16:59.372Z,2.6
2016-12-15T00:17:19.903Z,2.4
2016-12-15T00:17:40.429Z,2.5
2016-12-15T00:18:00.959Z,2.4
2016-12-15T00:18:21.502Z,2.5
2016-12-15T00:18:42.071Z,2.4
2016-12-15T00:19:02.604Z,2.4
2016-12-15T00:19:23.141Z,2.4
2016-12-15T00:19:43.671Z,2.5
2016-12-15T00:20:04.223Z,2.5
2016-12-15T00:20:24.741Z,2.5
2016-12-15T00:20:45.267Z,2.5
2016-12-15T00:21:05.810Z,2.5
2016-12-15T00:21:26.331Z,2.6
2016-12-15T00:21:46.865Z,2.5
2016-12-15T00:22:07.413Z,2.5
2016-12-15T00:22:27.951Z,2.5
2016-12-15T00:22:48.458Z,2.5
2016-12-15T00:23:08.976Z,2.5
2016-12-15T00:23:29.543Z,2.5
2016-12-15T00:23:50.103Z,2.5
2016-12-15T00:24:10.650Z,2.5
2016-12-15T00:24:31.171Z,2.5
2016-12-15T00:24:51.697Z,2.5
2016-12-15T00:25:12.288Z,2.4
2016-12-15T00:25:32.814Z,2.4
2016-12-15T00:25:53.350Z,2.5
2016-12-15T00:26:13.889Z,2.5
2016-12-15T00:26:34.402Z,2.5
2016-12-15T00:26:54.924Z,2.5
2016-12-15T00:27:15.452Z,2.5
2016-12-15T00:27:36.023Z,2.4
2016-12-15T00:27:56.534Z,2.4
2016-12-15T00:28:17.059Z,2.5
2016-12-15T00:28:37.601Z,2.5
2016-12-15T00:28:58.136Z,2.5
2016-12-15T00:29:18.672Z,2.4
2016-12-15T00:29:39.193Z,2.4
2016-12-15T00:29:59.722Z,2.4
2016-12-15T00:30:20.274Z,2.4
2016-12-15T00:30:40.840Z,2.4
2016-12-15T00:31:01.369Z,2.4
2016-12-15T00:31:21.893Z,2.4
2016-12-15T00:31:42.425Z,2.3
2016-12-15T00:32:02.973Z,2.3
2016-12-15T00:32:23.524Z,2.3
2016-12-15T00:32:44.085Z,2.3
2016-12-15T00:33:04.615Z,2.3
2016-12-15T00:33:25.169Z,2.3
2016-12-15T00:33:45.704Z,2.3
2016-12-15T00:34:06.259Z,2.2
2016-12-15T00:34:26.801Z,2.2
2016-12-15T00:34:47.342Z,2.2
2016-12-15T00:35:07.888Z,2.4
2016-12-15T00:35:28.419Z,2.3
2016-12-15T00:35:48.962Z,2.1
2016-12-15T00:36:09.495Z,2.2
2016-12-15T00:36:30.021Z,2.2
2016-12-15T00:36:50.549Z,2.1
2016-12-15T00:37:11.083Z,2.2
2016-12-15T00:37:31.613Z,2.1
2016-12-15T00:37:52.133Z,2.1
2016-12-15T00:38:12.675Z,2.1
2016-12-15T00:38:33.194Z,2.2
2016-12-15T00:38:53.711Z,2.2
2016-12-15T00:39:14.274Z,2.2
2016-12-15T00:39:34.845Z,2.2
2016-12-15T00:39:55.364Z,2.2
2016-12-15T00:40:15.902Z,2
2016-12-15T00:40:36.434Z,2.1
2016-12-15T00:40:56.972Z,2.1
2016-12-15T00:41:17.530Z,2
2016-12-15T00:41:38.064Z,2
2016-12-15T00:41:58.584Z,2
2016-12-15T00:42:19.103Z,2.1
2016-12-15T00:42:39.635Z,2.1
2016-12-15T00:43:00.154Z,2.1
2016-12-15T00:43:20.680Z,2.1
2016-12-15T00:43:41.216Z,2
2016-12-15T00:44:01.782Z,2.1
2016-12-15T00:44:22.325Z,2
2016-12-15T00:44:42.857Z,2
2016-12-15T00:45:03.394Z,2.1
2016-12-15T00:45:23.943Z,2.2
2016-12-15T00:45:44.457Z,2.2
2016-12-15T00:46:04.973Z,2.1
2016-12-15T00:46:25.495Z,2.2
2016-12-15T00:46:46.021Z,2.1
2016-12-15T00:47:06.552Z,2.1
2016-12-15T00:47:27.110Z,2.1
2016-12-15T00:47:47.635Z,2.1
2016-12-15T00:48:08.163Z,2.1
2016-12-15T00:48:28.689Z,2.1
2016-12-15T00:48:49.218Z,2.1
2016-12-15T00:49:09.779Z,2.1
2016-12-15T00:49:30.319Z,2
2016-12-15T00:49:50.869Z,2.1
2016-12-15T00:50:11.436Z,2.2
2016-12-15T00:50:31.952Z,2.1
2016-12-15T00:50:52.468Z,2.2
2016-12-15T00:51:13.050Z,2.1
2016-12-15T00:51:33.583Z,2.1
2016-12-15T00:51:54.123Z,2.1
2016-12-15T00:52:14.656Z,2.1
2016-12-15T00:52:35.189Z,2.1
2016-12-15T00:52:55.725Z,2.1
2016-12-15T00:53:16.277Z,2
2016-12-15T00:53:36.797Z,2
2016-12-15T00:53:57.323Z,2
2016-12-15T00:54:17.863Z,2
2016-12-15T00:54:38.408Z,2
2016-12-15T00:54:58.937Z,2.1
2016-12-15T00:55:19.456Z,2.1
2016-12-15T00:55:39.985Z,2
2016-12-15T00:56:00.542Z,2
2016-12-15T00:56:21.084Z,2
2016-12-15T00:56:41.610Z,2
2016-12-15T00:57:02.117Z,2
2016-12-15T00:57:22.632Z,2
2016-12-15T00:57:43.157Z,2.1
2016-12-15T00:58:03.685Z,2.1
2016-12-15T00:58:24.200Z,2.1
2016-12-15T00:58:44.729Z,2.2
2016-12-15T00:59:05.262Z,2.1
2016-12-15T00:59:25.789Z,2.1
2016-12-15T00:59:46.322Z,2.2
2016-12-15T01:00:06.866Z,2.1
2016-12-15T01:00:27.407Z,2.1
2016-12-15T01:00:47.949Z,2.1
2016-12-15T01:01:08.471Z,2.1
2016-12-15T01:01:29.029Z,2.2
2016-12-15T01:01:49.551Z,2.2
2016-12-15T01:02:10.070Z,2.1
2016-12-15T01:02:30.616Z,2.1
2016-12-15T01:02:51.147Z,2.1
2016-12-15T01:03:11.682Z,2.1
2016-12-15T01:03:32.204Z,2.1
2016-12-15T01:03:52.720Z,2.2
2016-12-15T01:04:13.275Z,2.1
2016-12-15T01:04:33.806Z,2.1
2016-12-15T01:04:54.333Z,2.1
2016-12-15T01:05:14.863Z,2.1
2016-12-15T01:05:35.406Z,2.1
2016-12-15T01:05:55.946Z,2.1
2016-12-15T01:06:16.482Z,2.1
2016-12-15T01:06:37.024Z,2.2
2016-12-15T01:06:57.578Z,2.2
2016-12-15T01:07:18.122Z,2.1
2016-12-15T01:07:38.645Z,2.2
2016-12-15T01:07:59.175Z,2.1
2016-12-15T01:08:19.710Z,2.1
2016-12-15T01:08:40.252Z,2.2
2016-12-15T01:09:00.800Z,2.2
2016-12-15T01:09:21.330Z,2.1
2016-12-15T01:09:41.882Z,2.1
2016-12-15T01:10:02.396Z,2.1
2016-12-15T01:10:22.935Z,2.2
2016-12-15T01:10:43.464Z,2.2
2016-12-15T01:11:03.989Z,2.1
2016-12-15T01:11:24.511Z,2.2
2016-12-15T01:11:45.035Z,2.2
2016-12-15T01:12:05.566Z,2.2
2016-12-15T01:12:26.096Z,2.2
2016-12-15T01:12:46.627Z,2.2
2016-12-15T01:13:07.160Z,2.2
2016-12-15T01:13:27.696Z,2.2
2016-12-15T01:13:48.229Z,2.1
2016-12-15T01:14:08.764Z,2.1
2016-12-15T01:14:29.289Z,2.2
2016-12-15T01:14:49.825Z,2.2
2016-12-15T01:15:10.373Z,2.1
2016-12-15T01:15:30.907Z,2.1
2016-12-15T01:15:51.427Z,2.1
2016-12-15T01:16:11.956Z,2.1
2016-12-15T01:16:32.521Z,2.1
2016-12-15T01:16:53.047Z,2.1
2016-12-15T01:17:13.580Z,2
2016-12-15T01:17:34.105Z,2
2016-12-15T01:17:54.610Z,2.1
2016-12-15T01:18:15.140Z,2
2016-12-15T01:18:35.665Z,2
2016-12-15T01:18:56.227Z,2
2016-12-15T01:19:16.766Z,2.1
2016-12-15T01:19:37.307Z,2
2016-12-15T01:19:57.831Z,2
2016-12-15T01:20:18.343Z,2
2016-12-15T01:20:38.918Z,2
2016-12-15T01:20:59.451Z,2.1
2016-12-15T01:21:19.999Z,2
2016-12-15T01:21:40.553Z,2
2016-12-15T01:22:01.086Z,2
2016-12-15T01:22:21.614Z,2
2016-12-15T01:22:42.142Z,1.9
2016-12-15T01:23:02.657Z,2
2016-12-15T01:23:23.186Z,2
2016-12-15T01:23:43.715Z,2
2016-12-15T01:24:04.247Z,2
2016-12-15T01:24:24.768Z,1.9
2016-12-15T01:24:45.331Z,1.9
2016-12-15T01:25:05.870Z,1.9
2016-12-15T01:25:26.401Z,1.9
2016-12-15T01:25:46.940Z,2
2016-12-15T01:26:07.487Z,1.9
2016-12-15T01:26:28.046Z,2
2016-12-15T01:26:48.638Z,1.9
2016-12-15T01:27:09.210Z,1.9
2016-12-15T01:27:29.743Z,1.9
2016-12-15T01:27:50.297Z,2
2016-12-15T01:28:10.870Z,1.9
2016-12-15T01:28:31.401Z,2
2016-12-15T01:28:51.934Z,2.1
2016-12-15T01:29:12.467Z,2
2016-12-15T01:29:33.006Z,1.9
2016-12-15T01:29:53.532Z,1.9
2016-12-15T01:30:14.060Z,2
2016-12-15T01:30:34.596Z,1.9
2016-12-15T01:30:55.120Z,1.9
2016-12-15T01:31:15.673Z,1.9
2016-12-15T01:31:36.214Z,2
2016-12-15T01:31:56.772Z,2
2016-12-15T01:32:17.315Z,1.9
2016-12-15T01:32:37.843Z,1.9
2016-12-15T01:32:58.414Z,1.8
2016-12-15T01:33:18.965Z,1.9
2016-12-15T01:33:39.484Z,1.9
2016-12-15T01:34:00.010Z,2
2016-12-15T01:34:20.526Z,1.9
2016-12-15T01:34:41.059Z,1.9
2016-12-15T01:35:01.600Z,1.8
2016-12-15T01:35:22.132Z,1.8
2016-12-15T01:35:42.662Z,1.8
2016-12-15T01:36:03.201Z,1.9
2016-12-15T01:36:23.737Z,1.9
2016-12-15T01:36:44.267Z,1.9
2016-12-15T01:37:04.791Z,2
2016-12-15T01:37:25.354Z,1.9
2016-12-15T01:37:45.882Z,1.9
2016-12-15T01:38:06.417Z,1.8
2016-12-15T01:38:26.974Z,1.8
2016-12-15T01:38:47.530Z,1.8
2016-12-15T01:39:08.073Z,1.8
2016-12-15T01:39:28.650Z,1.7
2016-12-15T01:39:49.167Z,1.7
2016-12-15T01:40:09.718Z,1.7
2016-12-15T01:40:30.299Z,1.7
2016-12-15T01:40:50.844Z,1.7
2016-12-15T01:41:11.377Z,1.8
2016-12-15T01:41:31.903Z,1.7
2016-12-15T01:41:52.441Z,1.7
2016-12-15T01:42:13.010Z,1.8
2016-12-15T01:42:33.538Z,1.8
2016-12-15T01:42:54.068Z,1.8
2016-12-15T01:43:14.603Z,1.7
2016-12-15T01:43:35.133Z,1.7
2016-12-15T01:43:55.676Z,1.7
2016-12-15T01:44:16.202Z,1.7
2016-12-15T01:44:36.733Z,1.6
2016-12-15T01:44:57.287Z,1.6
2016-12-15T01:45:17.821Z,1.7
2016-12-15T01:45:38.341Z,1.8
2016-12-15T01:45:58.872Z,1.8
2016-12-15T01:46:19.394Z,1.7
2016-12-15T01:46:39.967Z,1.6
2016-12-15T01:47:00.495Z,1.7
2016-12-15T01:47:21.012Z,1.7
2016-12-15T01:47:41.544Z,1.8
2016-12-15T01:48:02.102Z,1.7
2016-12-15T01:48:22.639Z,1.7
2016-12-15T01:48:43.177Z,1.7
2016-12-15T01:49:03.726Z,1.7
2016-12-15T01:49:24.265Z,1.6
2016-12-15T01:49:44.786Z,1.6
2016-12-15T01:50:05.328Z,1.7
2016-12-15T01:50:25.863Z,1.8
2016-12-15T01:50:46.420Z,1.7
2016-12-15T01:51:06.943Z,1.7
2016-12-15T01:51:27.480Z,1.8
2016-12-15T01:51:48.009Z,1.7
2016-12-15T01:52:08.534Z,1.7
2016-12-15T01:52:29.074Z,1.8
2016-12-15T01:52:49.598Z,1.8
2016-12-15T01:53:10.112Z,1.7
2016-12-15T01:53:30.633Z,1.7
2016-12-15T01:53:51.163Z,1.7
2016-12-15T01:54:11.729Z,1.7
2016-12-15T01:54:32.260Z,1.7
2016-12-15T01:54:52.791Z,1.7
2016-12-15T01:55:13.306Z,1.8
2016-12-15T01:55:33.827Z,1.7
2016-12-15T01:55:54.375Z,1.8
2016-12-15T01:56:14.906Z,1.7
2016-12-15T01:56:35.424Z,1.8
2016-12-15T01:56:55.945Z,1.8
2016-12-15T01:57:16.496Z,1.7
2016-12-15T01:57:37.025Z,1.7
2016-12-15T01:57:57.553Z,1.7
2016-12-15T01:58:18.115Z,1.7
2016-12-15T01:58:38.636Z,1.8
2016-12-15T01:58:59.196Z,1.7
2016-12-15T01:59:19.726Z,1.7
2016-12-15T01:59:40.253Z,1.8
2016-12-15T02:00:00.771Z,1.8
2016-12-15T02:00:21.310Z,1.7
2016-12-15T02:00:41.835Z,1.8
2016-12-15T02:01:02.363Z,1.7
2016-12-15T02:01:22.880Z,1.8
2016-12-15T02:01:43.421Z,1.8
2016-12-15T02:02:03.955Z,1.7
2016-12-15T02:02:24.483Z,1.7
2016-12-15T02:02:45.007Z,1.7
2016-12-15T02:03:05.527Z,1.6
2016-12-15T02:03:26.046Z,1.6
2016-12-15T02:03:46.566Z,1.6
2016-12-15T02:04:07.100Z,1.6
2016-12-15T02:04:27.641Z,1.6
2016-12-15T02:04:48.196Z,1.7
2016-12-15T02:05:08.724Z,1.7
2016-12-15T02:05:29.253Z,1.7
2016-12-15T02:05:49.786Z,1.7
2016-12-15T02:06:10.304Z,1.8
2016-12-15T02:06:30.837Z,1.7
2016-12-15T02:06:51.376Z,1.8
2016-12-15T02:07:11.899Z,1.7
2016-12-15T02:07:32.430Z,1.7
2016-12-15T02:07:52.960Z,1.7
2016-12-15T02:08:13.493Z,1.8
2016-12-15T02:08:34.020Z,1.7
2016-12-15T02:08:54.560Z,1.7
2016-12-15T02:09:15.102Z,1.7
2016-12-15T02:09:38.320Z,1.7
2016-12-15T02:09:58.841Z,1.8
2016-12-15T02:10:19.377Z,1.7
2016-12-15T02:10:39.920Z,1.8
2016-12-15T02:11:00.448Z,1.7
2016-12-15T02:11:20.991Z,1.8
2016-12-15T02:11:41.528Z,1.7
2016-12-15T02:12:02.056Z,1.7
2016-12-15T02:12:22.619Z,1.7
2016-12-15T02:12:43.146Z,1.7
2016-12-15T02:13:03.711Z,1.7
2016-12-15T02:13:24.257Z,1.7
2016-12-15T02:13:44.828Z,1.7
2016-12-15T02:14:05.360Z,1.7
2016-12-15T02:14:25.887Z,1.7
2016-12-15T02:14:46.416Z,1.8
2016-12-15T02:15:06.947Z,1.8
2016-12-15T02:15:27.478Z,1.7
2016-12-15T02:15:48.013Z,1.8
2016-12-15T02:16:08.535Z,1.8
2016-12-15T02:16:29.077Z,1.8
2016-12-15T02:16:49.615Z,1.7
2016-12-15T02:17:10.162Z,1.7
2016-12-15T02:17:30.712Z,1.8
2016-12-15T02:17:51.238Z,1.8
2016-12-15T02:18:11.768Z,1.8
2016-12-15T02:18:32.301Z,1.7
2016-12-15T02:18:52.839Z,1.8
2016-12-15T02:19:13.366Z,1.8
2016-12-15T02:19:33.908Z,1.8
2016-12-15T02:19:54.466Z,1.7
2016-12-15T02:20:14.993Z,1.7
2016-12-15T02:20:35.528Z,1.7
2016-12-15T02:20:56.068Z,1.8
2016-12-15T02:21:16.608Z,1.7
2016-12-15T02:21:37.170Z,1.8
2016-12-15T02:21:57.699Z,1.7
2016-12-15T02:22:18.237Z,1.8
2016-12-15T02:22:38.784Z,1.7
2016-12-15T02:22:59.327Z,1.6
2016-12-15T02:23:19.895Z,1.7
2016-12-15T02:23:40.434Z,1.7
2016-12-15T02:24:00.991Z,1.7
2016-12-15T02:24:21.533Z,1.6
2016-12-15T02:24:42.057Z,1.7
2016-12-15T02:25:02.604Z,1.7
2016-12-15T02:25:23.140Z,1.7
2016-12-15T02:25:43.683Z,1.7
2016-12-15T02:26:04.201Z,1.6
2016-12-15T02:26:24.757Z,1.7
2016-12-15T02:26:45.283Z,1.6
2016-12-15T02:27:05.821Z,1.6
2016-12-15T02:27:26.351Z,1.6
2016-12-15T02:27:46.884Z,1.7
2016-12-15T02:28:07.416Z,1.7
2016-12-15T02:28:27.926Z,1.7
2016-12-15T02:28:48.457Z,1.7
2016-12-15T02:29:08.987Z,1.8
2016-12-15T02:29:29.506Z,1.7
2016-12-15T02:29:50.029Z,1.8
2016-12-15T02:30:10.551Z,1.7
2016-12-15T02:30:31.139Z,1.7
2016-12-15T02:30:51.682Z,1.8
2016-12-15T02:31:12.207Z,1.7
2016-12-15T02:31:32.743Z,1.8
2016-12-15T02:31:53.272Z,1.8
2016-12-15T02:32:13.827Z,1.8
2016-12-15T02:32:34.365Z,1.7
2016-12-15T02:32:54.890Z,1.7
2016-12-15T02:33:15.400Z,1.8
2016-12-15T02:33:35.947Z,1.8
2016-12-15T02:33:56.518Z,1.7
2016-12-15T02:34:17.057Z,1.7
2016-12-15T02:34:37.603Z,1.8
2016-12-15T02:34:58.137Z,1.8
2016-12-15T02:35:18.674Z,1.7
2016-12-15T02:35:39.193Z,1.7
2016-12-15T02:35:59.703Z,1.8
2016-12-15T02:36:20.256Z,1.7
2016-12-15T02:36:40.805Z,1.7
2016-12-15T02:37:01.315Z,1.8
2016-12-15T02:37:21.850Z,1.7
2016-12-15T02:37:42.374Z,1.8
2016-12-15T02:38:02.896Z,1.7
2016-12-15T02:38:23.437Z,1.7
2016-12-15T02:38:43.979Z,1.8
2016-12-15T02:39:04.507Z,1.7
2016-12-15T02:39:25.039Z,1.8
2016-12-15T02:39:45.571Z,1.8
2016-12-15T02:40:06.125Z,1.7
2016-12-15T02:40:26.646Z,1.7
2016-12-15T02:40:47.194Z,1.7
2016-12-15T02:41:07.721Z,1.8
2016-12-15T02:41:28.252Z,1.8
2016-12-15T02:41:48.779Z,1.6
2016-12-15T02:42:09.321Z,1.7
2016-12-15T02:42:29.867Z,1.7
2016-12-15T02:42:50.394Z,1.8
2016-12-15T02:43:10.939Z,1.7
2016-12-15T02:43:31.465Z,1.6
2016-12-15T02:43:52.010Z,1.7
2016-12-15T02:44:12.534Z,1.8
2016-12-15T02:44:33.098Z,1.8
2016-12-15T02:44:53.622Z,1.8
2016-12-15T02:45:14.130Z,1.7
2016-12-15T02:45:34.662Z,1.7
2016-12-15T02:45:55.191Z,1.7
2016-12-15T02:46:15.726Z,1.7
2016-12-15T02:46:36.251Z,1.8
2016-12-15T02:46:56.788Z,1.8
2016-12-15T02:47:17.383Z,1.8
2016-12-15T02:47:37.962Z,1.7
2016-12-15T02:47:58.503Z,1.7
2016-12-15T02:48:19.048Z,1.7
2016-12-15T02:48:39.555Z,1.7
2016-12-15T02:49:00.117Z,1.7
2016-12-15T02:49:20.681Z,1.7
2016-12-15T02:49:41.224Z,1.8
2016-12-15T02:50:01.758Z,1.7
2016-12-15T02:50:22.291Z,1.7
2016-12-15T02:50:42.813Z,1.8
2016-12-15T02:51:03.321Z,1.8
2016-12-15T02:51:23.853Z,1.7
2016-12-15T02:51:44.400Z,1.7
2016-12-15T02:52:04.937Z,1.7
2016-12-15T02:52:25.456Z,1.8
2016-12-15T02:52:46.027Z,1.8
2016-12-15T02:53:06.565Z,1.7
2016-12-15T02:53:27.089Z,1.8
2016-12-15T02:53:47.605Z,1.8
2016-12-15T02:54:08.173Z,1.7
2016-12-15T02:54:28.701Z,1.7
2016-12-15T02:54:49.238Z,1.7
2016-12-15T02:55:09.787Z,1.7
2016-12-15T02:55:30.318Z,1.8
2016-12-15T02:55:50.847Z,1.7
2016-12-15T02:56:11.379Z,1.7
2016-12-15T02:56:31.912Z,1.8
2016-12-15T02:56:52.451Z,1.7
2016-12-15T02:57:12.993Z,1.7
2016-12-15T02:57:33.524Z,1.8
2016-12-15T02:57:54.054Z,1.8
2016-12-15T02:58:14.587Z,1.8
2016-12-15T02:58:35.118Z,1.6
2016-12-15T02:58:55.645Z,1.7
2016-12-15T02:59:16.152Z,1.7
2016-12-15T02:59:36.694Z,1.7
2016-12-15T02:59:57.244Z,1.7
2016-12-15T03:00:17.779Z,1.7
2016-12-15T03:00:38.337Z,1.6
2016-12-15T03:00:58.865Z,1.6
2016-12-15T03:01:19.392Z,1.6
2016-12-15T03:01:39.920Z,1.6
2016-12-15T03:02:00.457Z,1.7
2016-12-15T03:02:20.984Z,1.5
2016-12-15T03:02:41.525Z,1.7
2016-12-15T03:03:02.042Z,1.7
2016-12-15T03:03:22.561Z,1.7
2016-12-15T03:03:43.119Z,1.6
2016-12-15T03:04:03.654Z,1.7
2016-12-15T03:04:24.215Z,1.7
2016-12-15T03:04:44.753Z,1.7
2016-12-15T03:05:05.291Z,1.6
2016-12-15T03:05:25.819Z,1.7
2016-12-15T03:05:46.358Z,1.6
2016-12-15T03:06:06.893Z,1.6
2016-12-15T03:06:27.422Z,1.7
2016-12-15T03:06:47.954Z,1.6
2016-12-15T03:07:08.531Z,1.7
2016-12-15T03:07:29.065Z,1.7
2016-12-15T03:07:49.605Z,1.7
2016-12-15T03:08:10.160Z,1.7
2016-12-15T03:08:30.687Z,1.7
2016-12-15T03:08:51.222Z,1.7
2016-12-15T03:09:11.785Z,1.7
2016-12-15T03:09:32.317Z,1.7
2016-12-15T03:09:52.852Z,1.7
2016-12-15T03:10:13.418Z,1.7
2016-12-15T03:10:33.990Z,1.7
2016-12-15T03:10:54.511Z,1.7
2016-12-15T03:11:15.082Z,1.6
2016-12-15T03:11:35.613Z,1.6
2016-12-15T03:11:56.149Z,1.6
2016-12-15T03:12:16.685Z,1.6
2016-12-15T03:12:37.209Z,1.7
2016-12-15T03:12:57.739Z,1.7
2016-12-15T03:13:18.275Z,1.7
2016-12-15T03:13:38.790Z,1.8
2016-12-15T03:13:59.322Z,1.8
2016-12-15T03:14:19.862Z,1.8
2016-12-15T03:14:40.387Z,1.8
2016-12-15T03:15:00.936Z,1.6
2016-12-15T03:15:21.461Z,1.6
2016-12-15T03:15:41.984Z,1.8
2016-12-15T03:16:02.514Z,1.8
2016-12-15T03:16:23.038Z,1.7
2016-12-15T03:16:43.574Z,1.7
2016-12-15T03:17:04.094Z,1.7
2016-12-15T03:17:24.630Z,1.7
2016-12-15T03:17:45.162Z,1.7
2016-12-15T03:18:05.690Z,1.9
2016-12-15T03:18:26.232Z,1.8
2016-12-15T03:18:46.761Z,1.8
2016-12-15T03:19:07.323Z,1.7
2016-12-15T03:19:27.844Z,1.8
2016-12-15T03:19:48.368Z,1.8
2016-12-15T03:20:08.938Z,1.7
2016-12-15T03:20:29.460Z,1.7
2016-12-15T03:20:50.053Z,1.7
2016-12-15T03:21:10.596Z,1.8
2016-12-15T03:21:31.141Z,1.7
2016-12-15T03:21:51.658Z,1.7
2016-12-15T03:22:12.195Z,1.8
2016-12-15T03:22:32.730Z,1.8
2016-12-15T03:22:53.264Z,1.7
2016-12-15T03:23:13.808Z,1.7
2016-12-15T03:23:34.358Z,1.8
2016-12-15T03:23:54.896Z,1.7
2016-12-15T03:24:15.421Z,1.8
2016-12-15T03:24:35.946Z,1.7
2016-12-15T03:24:56.480Z,1.7
2016-12-15T03:25:17.005Z,1.7
2016-12-15T03:25:37.519Z,1.7
2016-12-15T03:25:58.041Z,1.7
2016-12-15T03:26:18.599Z,1.6
2016-12-15T03:26:39.150Z,1.6
2016-12-15T03:26:59.683Z,1.6
2016-12-15T03:27:20.223Z,1.6
2016-12-15T03:27:40.756Z,1.6
2016-12-15T03:28:01.280Z,1.6
2016-12-15T03:28:21.832Z,1.6
2016-12-15T03:28:42.365Z,1.7
2016-12-15T03:29:02.895Z,1.6
2016-12-15T03:29:23.458Z,1.6
2016-12-15T03:29:44.001Z,1.6
2016-12-15T03:30:04.531Z,1.7
2016-12-15T03:30:25.066Z,1.6
2016-12-15T03:30:45.638Z,1.6
2016-12-15T03:31:06.175Z,1.6
2016-12-15T03:31:26.693Z,1.6
2016-12-15T03:31:47.236Z,1.5
2016-12-15T03:32:07.789Z,1.6
2016-12-15T03:32:28.349Z,1.5
2016-12-15T03:32:48.888Z,1.6
2016-12-15T03:33:09.410Z,1.6
2016-12-15T03:33:29.973Z,1.6
2016-12-15T03:33:50.490Z,1.7
2016-12-15T03:34:11.034Z,1.6
2016-12-15T03:34:31.590Z,1.7
2016-12-15T03:34:52.134Z,1.6
2016-12-15T03:35:12.707Z,1.7
2016-12-15T03:35:33.760Z,1.7
2016-12-15T03:35:54.292Z,1.6
2016-12-15T03:36:14.830Z,1.5
2016-12-15T03:36:35.370Z,1.5
2016-12-15T03:36:55.896Z,1.5
2016-12-15T03:37:16.432Z,1.5
2016-12-15T03:37:36.986Z,1.5
2016-12-15T03:37:57.526Z,1.6
2016-12-15T03:38:18.057Z,1.5
2016-12-15T03:38:38.624Z,1.5
2016-12-15T03:38:59.142Z,1.5
2016-12-15T03:39:19.677Z,1.6
2016-12-15T03:39:40.210Z,1.6
2016-12-15T03:40:00.727Z,1.6
2016-12-15T03:40:21.288Z,1.6
2016-12-15T03:40:41.817Z,1.6
2016-12-15T03:41:02.349Z,1.7
2016-12-15T03:41:22.865Z,1.6
2016-12-15T03:41:43.405Z,1.6
2016-12-15T03:42:03.951Z,1.7
2016-12-15T03:42:24.518Z,1.6
2016-12-15T03:42:45.036Z,1.6
2016-12-15T03:43:05.564Z,1.7
2016-12-15T03:43:26.084Z,1.7
2016-12-15T03:43:46.620Z,1.6
2016-12-15T03:44:07.169Z,1.7
2016-12-15T03:44:27.696Z,1.7
2016-12-15T03:44:48.233Z,1.7
2016-12-15T03:45:08.752Z,1.6
2016-12-15T03:45:29.284Z,1.7
2016-12-15T03:45:49.810Z,1.7
2016-12-15T03:46:10.339Z,1.7
2016-12-15T03:46:30.901Z,1.6
2016-12-15T03:46:51.422Z,1.7
2016-12-15T03:47:11.954Z,1.7
2016-12-15T03:47:32.515Z,1.7
2016-12-15T03:47:53.049Z,1.8
2016-12-15T03:48:13.598Z,1.7
2016-12-15T03:48:34.148Z,1.7
2016-12-15T03:48:54.680Z,1.7
2016-12-15T03:49:15.221Z,1.7
2016-12-15T03:49:35.739Z,1.6
2016-12-15T03:49:56.270Z,1.7
2016-12-15T03:50:16.813Z,1.7
2016-12-15T03:50:37.363Z,1.7
2016-12-15T03:50:57.878Z,1.7
2016-12-15T03:51:18.420Z,1.7
2016-12-15T03:51:38.946Z,1.7
2016-12-15T03:51:59.489Z,1.6
2016-12-15T03:52:20.020Z,1.6
2016-12-15T03:52:40.558Z,1.6
2016-12-15T03:53:01.086Z,1.6
2016-12-15T03:53:21.616Z,1.7
2016-12-15T03:53:42.164Z,1.6
2016-12-15T03:54:02.701Z,1.7
2016-12-15T03:54:23.225Z,1.6
2016-12-15T03:54:43.765Z,1.7
2016-12-15T03:55:04.294Z,1.6
2016-12-15T03:55:24.852Z,1.7
2016-12-15T03:55:45.380Z,1.7
2016-12-15T03:56:05.931Z,1.7
2016-12-15T03:56:26.455Z,1.7
2016-12-15T03:56:46.990Z,1.7
2016-12-15T03:57:07.516Z,1.8
2016-12-15T03:57:28.060Z,1.8
2016-12-15T03:57:48.590Z,1.8
2016-12-15T03:58:09.132Z,1.7
2016-12-15T03:58:29.661Z,1.7
2016-12-15T03:58:50.191Z,1.8
2016-12-15T03:59:10.707Z,1.8
2016-12-15T03:59:31.264Z,1.7
2016-12-15T03:59:51.815Z,1.7
2016-12-15T04:00:12.353Z,1.7
2016-12-15T04:00:32.895Z,1.7
2016-12-15T04:00:53.422Z,1.7
2016-12-15T04:01:13.961Z,1.8
2016-12-15T04:01:34.483Z,1.8
2016-12-15T04:01:55.004Z,1.8
2016-12-15T04:02:15.548Z,1.7
2016-12-15T04:02:36.084Z,1.8
2016-12-15T04:02:56.644Z,1.7
2016-12-15T04:03:17.175Z,1.8
2016-12-15T04:03:37.708Z,1.8
2016-12-15T04:03:58.240Z,1.7
2016-12-15T04:04:18.772Z,1.7
2016-12-15T04:04:39.314Z,1.7
2016-12-15T04:04:59.845Z,1.7
2016-12-15T04:05:20.390Z,1.8
2016-12-15T04:05:40.913Z,1.9
2016-12-15T04:06:01.456Z,1.8
2016-12-15T04:06:21.987Z,1.8
2016-12-15T04:06:42.502Z,1.7
2016-12-15T04:07:03.018Z,1.8
2016-12-15T04:07:23.566Z,1.7
2016-12-15T04:07:44.094Z,1.8
2016-12-15T04:08:04.647Z,1.7
2016-12-15T04:08:25.179Z,1.8
2016-12-15T04:08:45.725Z,1.7
2016-12-15T04:09:06.255Z,1.7
2016-12-15T04:09:27.735Z,1.8
2016-12-15T04:09:48.271Z,1.8
2016-12-15T04:10:08.826Z,1.8
2016-12-15T04:10:29.360Z,1.7
2016-12-15T04:10:49.937Z,1.8
2016-12-15T04:11:10.458Z,1.7
2016-12-15T04:11:31.040Z,1.9
2016-12-15T04:11:51.579Z,1.9
2016-12-15T04:12:12.141Z,1.9
2016-12-15T04:12:32.710Z,1.8
2016-12-15T04:12:53.238Z,1.8
2016-12-15T04:13:13.755Z,1.8
2016-12-15T04:13:34.308Z,1.8
2016-12-15T04:13:54.847Z,1.8
2016-12-15T04:14:15.595Z,1.9
2016-12-15T04:14:37.796Z,1.8
2016-12-15T04:15:05.911Z,1.7
2016-12-15T04:15:27.655Z,1.7
2016-12-15T04:15:48.384Z,1.8
2016-12-15T04:16:09.989Z,1.7
2016-12-15T04:16:41.811Z,1.7
2016-12-15T04:17:14.744Z,1.7
2016-12-15T04:17:36.233Z,1.8
2016-12-15T04:17:56.789Z,1.7
2016-12-15T04:18:17.318Z,1.7
2016-12-15T04:18:37.861Z,1.8
2016-12-15T04:18:58.431Z,1.8
2016-12-15T04:19:18.944Z,1.8
2016-12-15T04:19:39.469Z,1.8
2016-12-15T04:20:00.224Z,1.9
2016-12-15T04:20:20.781Z,1.8
2016-12-15T04:20:41.318Z,1.8
2016-12-15T04:21:01.847Z,1.9
2016-12-15T04:21:22.373Z,1.8
2016-12-15T04:21:42.883Z,1.9
2016-12-15T04:22:04.566Z,1.9
2016-12-15T04:22:25.178Z,1.8
2016-12-15T04:22:45.700Z,1.8
2016-12-15T04:23:06.238Z,1.9
2016-12-15T04:23:26.769Z,1.9
2016-12-15T04:23:47.310Z,1.9
2016-12-15T04:24:07.844Z,1.9
2016-12-15T04:24:28.377Z,1.8
2016-12-15T04:24:48.929Z,1.9
2016-12-15T04:25:09.491Z,1.9
2016-12-15T04:25:30.866Z,1.9
2016-12-15T04:25:51.404Z,1.9
2016-12-15T04:26:11.931Z,1.9
2016-12-15T04:26:32.458Z,1.9
2016-12-15T04:26:52.991Z,1.9
2016-12-15T04:27:13.523Z,1.9
2016-12-15T04:27:34.067Z,1.9
2016-12-15T04:27:54.623Z,1.9
2016-12-15T04:28:15.227Z,1.9
2016-12-15T04:28:36.052Z,1.9
2016-12-15T04:28:56.618Z,1.8
2016-12-15T04:29:17.169Z,1.9
2016-12-15T04:29:37.689Z,1.9
2016-12-15T04:29:58.219Z,1.9
2016-12-15T04:30:18.753Z,1.9
2016-12-15T04:30:39.279Z,1.8
2016-12-15T04:30:59.820Z,1.8
2016-12-15T04:31:20.383Z,1.9
2016-12-15T04:31:41.602Z,1.9
2016-12-15T04:32:02.132Z,1.8
2016-12-15T04:32:22.674Z,1.8
2016-12-15T04:32:43.249Z,1.8
2016-12-15T04:33:03.782Z,1.7
2016-12-15T04:33:24.313Z,1.7
2016-12-15T04:33:44.881Z,1.8
2016-12-15T04:34:05.409Z,1.7
2016-12-15T04:34:26.323Z,1.7
2016-12-15T04:34:47.126Z,1.7
2016-12-15T04:35:07.653Z,1.8
2016-12-15T04:35:28.195Z,1.8
2016-12-15T04:35:48.728Z,1.7
2016-12-15T04:36:09.263Z,1.7
2016-12-15T04:36:29.783Z,1.7
2016-12-15T04:36:50.320Z,1.8
2016-12-15T04:37:10.863Z,1.7
2016-12-15T04:37:31.395Z,1.7
2016-12-15T04:37:51.938Z,1.8
2016-12-15T04:38:12.468Z,1.7
2016-12-15T04:38:33.000Z,1.7
2016-12-15T04:38:53.539Z,1.8
2016-12-15T04:39:14.073Z,1.7
2016-12-15T04:39:34.614Z,1.7
2016-12-15T04:39:55.133Z,1.7
2016-12-15T04:40:15.665Z,1.7
2016-12-15T04:40:36.203Z,1.8
2016-12-15T04:40:56.739Z,1.8
2016-12-15T04:41:17.274Z,1.7
2016-12-15T04:41:37.828Z,1.8
2016-12-15T04:41:58.370Z,1.8
2016-12-15T04:42:18.909Z,1.7
2016-12-15T04:42:39.436Z,1.7
2016-12-15T04:42:59.965Z,1.8
2016-12-15T04:43:20.516Z,1.8
2016-12-15T04:43:41.052Z,1.8
2016-12-15T04:44:01.586Z,1.8
2016-12-15T04:44:22.137Z,1.7
2016-12-15T04:44:42.696Z,1.8